createdAt,value
2023-06-30T00:01:01.317Z,98700.03
2023-06-30T00:03:28.608Z,98701.25
2023-06-30T00:05:55.544Z,98708.31
2023-06-30T00:08:22.539Z,98720.66
2023-06-30T00:10:49.610Z,98732.50
2023-06-30T00:13:16.418Z,98725.34
2023-06-30T00:15:43.458Z,98738.88
2023-06-30T00:18:11.692Z,98749.88
2023-06-30T00:20:38.488Z,98729.09
2023-06-30T00:23:07.382Z,98749.72
2023-06-30T00:25:34.197Z,98742.41
2023-06-30T00:28:00.930Z,98766.50
2023-06-30T00:30:27.633Z,98763.25
2023-06-30T00:32:54.552Z,98773.56
2023-06-30T00:35:21.856Z,98772.00
2023-06-30T00:37:48.608Z,98764.53
2023-06-30T00:40:16.945Z,98772.00
2023-06-30T00:42:43.654Z,98757.25
2023-06-30T00:45:11.168Z,98782.66
2023-06-30T00:47:38.073Z,98786.38
2023-06-30T00:50:05.772Z,98781.44
2023-06-30T00:52:33.622Z,98779.53
2023-06-30T00:55:00.443Z,98791.00
2023-06-30T00:57:27.390Z,98778.94
2023-06-30T00:59:54.522Z,98775.19
2023-06-30T01:02:24.944Z,98769.19
2023-06-30T01:05:10.585Z,98776.91
2023-06-30T01:07:40.623Z,98794.63
2023-06-30T01:10:11.426Z,98796.53
2023-06-30T01:12:39.148Z,98789.34
2023-06-30T01:15:07.194Z,98773.31
2023-06-30T01:17:35.471Z,98780.72
2023-06-30T01:20:05.750Z,98781.34
2023-06-30T01:22:41.120Z,98781.44
2023-06-30T01:25:14.844Z,98759.13
2023-06-30T01:27:44.113Z,98766.81
2023-06-30T01:30:11.802Z,98769.59
2023-06-30T01:32:39.250Z,98756.63
2023-06-30T01:35:07.531Z,98761.91
2023-06-30T01:37:35.423Z,98759.75
2023-06-30T01:40:02.446Z,98756.75
2023-06-30T01:42:29.556Z,98757.72
2023-06-30T01:44:56.567Z,98756.63
2023-06-30T01:47:24.219Z,98763.38
2023-06-30T01:49:51.846Z,98754.53
2023-06-30T01:52:19.802Z,98764.13
2023-06-30T01:54:47.010Z,98736.56
2023-06-30T01:57:14.030Z,98739.56
2023-06-30T01:59:40.962Z,98722.06
2023-06-30T02:02:11.165Z,98726.28
2023-06-30T02:04:37.918Z,98704.94
2023-06-30T02:07:07.882Z,98713.56
2023-06-30T02:09:47.318Z,98714.31
2023-06-30T02:12:15.788Z,98708.41
2023-06-30T02:14:42.740Z,98696.56
2023-06-30T02:17:11.479Z,98694.41
2023-06-30T02:19:38.446Z,98674.75
2023-06-30T02:22:07.882Z,98672.94
2023-06-30T02:24:34.955Z,98676.88
2023-06-30T02:27:04.912Z,98645.72
2023-06-30T02:29:32.496Z,98634.69
2023-06-30T02:32:00.037Z,98629.41
2023-06-30T02:34:27.768Z,98641.81
2023-06-30T02:36:54.552Z,98620.66
2023-06-30T02:39:21.761Z,98607.22
2023-06-30T02:41:49.237Z,98608.75
2023-06-30T02:44:16.032Z,98608.72
2023-06-30T02:46:43.251Z,98582.94
2023-06-30T02:49:09.983Z,98569.34
2023-06-30T02:51:37.203Z,98587.03
2023-06-30T02:54:04.677Z,98575.78
2023-06-30T02:56:31.878Z,98583.56
2023-06-30T02:58:59.218Z,98559.78
2023-06-30T03:01:26.513Z,98589.47
2023-06-30T03:03:54.689Z,98585.81
2023-06-30T03:06:21.742Z,98573.28
2023-06-30T03:08:48.497Z,98584.09
2023-06-30T03:11:15.797Z,98583.56
2023-06-30T03:13:45.880Z,98588.91
2023-06-30T03:16:13.945Z,98597.75
2023-06-30T03:18:41.391Z,98587.88
2023-06-30T03:21:08.832Z,98582.69
2023-06-30T03:23:35.763Z,98582.00
2023-06-30T03:26:03.137Z,98579.94
2023-06-30T03:28:32.669Z,98591.44
2023-06-30T03:30:59.436Z,98601.88
2023-06-30T03:33:30.157Z,98616.22
2023-06-30T03:36:01.021Z,98632.13
2023-06-30T03:38:27.787Z,98619.44
2023-06-30T03:41:03.118Z,98628.19
2023-06-30T03:43:33.005Z,98624.47
2023-06-30T03:45:59.859Z,98618.56
2023-06-30T03:48:27.321Z,98622.38
2023-06-30T03:50:54.908Z,98625.16
2023-06-30T03:53:22.801Z,98636.09
2023-06-30T03:55:49.701Z,98653.41
2023-06-30T03:58:16.854Z,98648.06
2023-06-30T04:00:43.788Z,98616.72
2023-06-30T04:03:13.339Z,98626.63
2023-06-30T04:05:40.265Z,98620.13
2023-06-30T04:08:09.589Z,98624.06
2023-06-30T04:10:36.830Z,98656.81
2023-06-30T04:13:06.976Z,98660.91
2023-06-30T04:15:34.025Z,98637.59
2023-06-30T04:18:01.171Z,98633.97
2023-06-30T04:20:29.602Z,98603.66
2023-06-30T04:22:56.522Z,98642.47
2023-06-30T04:25:24.156Z,98642.84
2023-06-30T04:27:50.893Z,98636.19
2023-06-30T04:30:18.043Z,98655.66
2023-06-30T04:32:45.070Z,98642.66
2023-06-30T04:35:13.625Z,98662.44
2023-06-30T04:37:43.861Z,98677.56
2023-06-30T04:40:14.433Z,98671.03
2023-06-30T04:42:41.592Z,98650.06
2023-06-30T04:45:10.605Z,98693.91
2023-06-30T04:47:38.378Z,98690.13
2023-06-30T04:50:06.469Z,98667.69
2023-06-30T04:52:33.674Z,98636.63
2023-06-30T04:55:05.876Z,98623.56
2023-06-30T04:57:32.585Z,98608.44
2023-06-30T05:00:03.099Z,98605.38
2023-06-30T05:02:31.186Z,98625.31
2023-06-30T05:04:59.592Z,98619.03
2023-06-30T05:07:27.475Z,98620.56
2023-06-30T05:09:54.557Z,98616.94
2023-06-30T05:12:22.880Z,98621.25
2023-06-30T05:14:51.209Z,98618.44
2023-06-30T05:17:20.531Z,98628.13
2023-06-30T05:19:49.851Z,98633.81
2023-06-30T05:22:18.606Z,98632.25
2023-06-30T05:24:49.439Z,98640.94
2023-06-30T05:27:16.299Z,98633.81
2023-06-30T05:29:43.221Z,98635.06
2023-06-30T05:32:11.941Z,98632.41
2023-06-30T05:34:41.175Z,98638.56
2023-06-30T05:37:07.903Z,98635.56
2023-06-30T05:39:38.316Z,98619.59
2023-06-30T05:42:09.715Z,98635.34
2023-06-30T05:44:41.902Z,98627.41
2023-06-30T05:47:08.866Z,98615.50
2023-06-30T05:49:38.064Z,98636.81
2023-06-30T05:52:06.697Z,98632.66
2023-06-30T05:54:33.692Z,98624.25
2023-06-30T05:57:00.822Z,98629.06
2023-06-30T05:59:29.361Z,98641.72
2023-06-30T06:01:57.693Z,98633.63
2023-06-30T06:04:25.722Z,98624.81
2023-06-30T06:06:53.804Z,98631.09
2023-06-30T06:09:21.546Z,98622.00
2023-06-30T06:11:49.299Z,98621.25
2023-06-30T06:14:16.895Z,98632.03
2023-06-30T06:16:47.539Z,98632.31
2023-06-30T06:19:16.303Z,98652.25
2023-06-30T06:21:44.387Z,98658.19
2023-06-30T06:24:11.490Z,98667.19
2023-06-30T06:26:40.154Z,98671.78
2023-06-30T06:29:07.777Z,98677.81
2023-06-30T06:31:34.560Z,98656.47
2023-06-30T06:34:09.497Z,98662.16
2023-06-30T06:36:36.777Z,98624.31
2023-06-30T06:39:03.993Z,98651.00
2023-06-30T06:41:30.911Z,98643.69
2023-06-30T06:44:12.190Z,98650.03
2023-06-30T06:46:40.643Z,98651.06
2023-06-30T06:49:08.151Z,98656.63
2023-06-30T06:51:35.233Z,98653.28
2023-06-30T06:54:02.818Z,98639.53
2023-06-30T06:56:30.027Z,98633.63
2023-06-30T06:58:56.749Z,98637.34
2023-06-30T07:01:23.777Z,98646.22
2023-06-30T07:03:50.760Z,98641.88
2023-06-30T07:06:18.104Z,98650.28
2023-06-30T07:08:45.525Z,98652.06
2023-06-30T07:11:14.254Z,98659.56
2023-06-30T07:13:41.877Z,98667.66
2023-06-30T07:16:08.775Z,98664.94
2023-06-30T07:18:35.989Z,98675.91
2023-06-30T07:21:03.712Z,98666.97
2023-06-30T07:23:30.748Z,98693.84
2023-06-30T07:25:57.734Z,98686.56
2023-06-30T07:28:24.391Z,98685.66
2023-06-30T07:30:51.476Z,98682.59
2023-06-30T07:33:22.414Z,98700.44
2023-06-30T07:35:49.332Z,98706.81
2023-06-30T07:38:18.313Z,98704.00
2023-06-30T07:40:55.916Z,98718.75
2023-06-30T07:43:24.910Z,98736.19
2023-06-30T07:45:52.092Z,98739.03
2023-06-30T07:48:19.474Z,98756.28
2023-06-30T07:50:55.233Z,98740.72
2023-06-30T07:53:31.671Z,98744.00
2023-06-30T07:55:58.984Z,98754.81
2023-06-30T07:58:27.226Z,98727.47
2023-06-30T08:00:54.064Z,98729.38
2023-06-30T08:03:21.933Z,98762.22
2023-06-30T08:05:49.323Z,98843.09
2023-06-30T08:08:17.277Z,98876.91
2023-06-30T08:10:45.117Z,98852.63
2023-06-30T08:13:12.016Z,98850.59
2023-06-30T08:15:39.398Z,98834.13
2023-06-30T08:18:10.449Z,98822.84
2023-06-30T08:20:38.365Z,98805.91
2023-06-30T08:23:06.042Z,98791.22
2023-06-30T08:25:32.989Z,98769.72
2023-06-30T08:27:59.768Z,98767.91
2023-06-30T08:30:26.870Z,98776.03
2023-06-30T08:32:57.144Z,98797.38
2023-06-30T08:35:27.598Z,98792.88
2023-06-30T08:37:54.654Z,98776.03
2023-06-30T08:40:30.763Z,98760.00
2023-06-30T08:43:07.063Z,98784.53
2023-06-30T08:45:35.318Z,98759.81
2023-06-30T08:48:07.062Z,98762.34
2023-06-30T08:50:37.830Z,98743.09
2023-06-30T08:53:05.620Z,98772.00
2023-06-30T08:55:33.637Z,98762.84
2023-06-30T08:58:06.879Z,98781.53
2023-06-30T09:00:40.665Z,98807.72
2023-06-30T09:03:07.783Z,98793.88
2023-06-30T09:05:38.335Z,98811.53
2023-06-30T09:08:11.950Z,98786.88
2023-06-30T09:10:43.429Z,98735.31
2023-06-30T09:13:12.078Z,98703.25
2023-06-30T09:15:40.167Z,98643.50
2023-06-30T09:18:06.983Z,98618.41
2023-06-30T09:20:35.536Z,98613.34
2023-06-30T09:23:05.357Z,98604.06
2023-06-30T09:25:38.314Z,98560.88
2023-06-30T09:28:15.799Z,98540.13
2023-06-30T09:30:51.276Z,98519.75
2023-06-30T09:33:19.101Z,98545.56
2023-06-30T09:35:48.819Z,98520.03
2023-06-30T09:38:18.283Z,98527.28
2023-06-30T09:40:52.906Z,98559.31
2023-06-30T09:43:25.705Z,98553.63
2023-06-30T09:46:00.675Z,98545.31
2023-06-30T09:48:36.687Z,98525.56
2023-06-30T09:51:04.823Z,98510.91
2023-06-30T09:53:38.682Z,98460.56
2023-06-30T09:56:06.349Z,98461.16
2023-06-30T09:58:34.310Z,98455.69
2023-06-30T10:01:01.216Z,98450.00
2023-06-30T10:03:28.488Z,98464.13
2023-06-30T10:05:55.980Z,98436.03
2023-06-30T10:08:24.499Z,98447.03
2023-06-30T10:10:55.462Z,98436.19
2023-06-30T10:13:23.142Z,98404.44
2023-06-30T10:15:51.386Z,98374.72
2023-06-30T10:18:19.235Z,98395.38
2023-06-30T10:20:49.606Z,98398.56
2023-06-30T10:23:21.662Z,98390.31
2023-06-30T10:25:50.287Z,98381.47
2023-06-30T10:28:18.370Z,98383.44
2023-06-30T10:30:45.685Z,98379.09
2023-06-30T10:33:14.516Z,98387.41
2023-06-30T10:35:41.826Z,98365.34
2023-06-30T10:38:09.185Z,98375.41
2023-06-30T10:40:35.995Z,98365.66
2023-06-30T10:43:07.402Z,98376.16
2023-06-30T10:46:12.556Z,98370.22
2023-06-30T10:48:40.438Z,98359.41
2023-06-30T10:51:07.448Z,98340.25
2023-06-30T10:53:39.192Z,98342.06
2023-06-30T10:56:06.441Z,98331.53
2023-06-30T10:58:41.514Z,98317.31
2023-06-30T11:01:08.374Z,98302.28
2023-06-30T11:03:59.425Z,98330.91
2023-06-30T11:06:27.749Z,98316.63
2023-06-30T11:09:04.834Z,98332.56
2023-06-30T11:11:48.420Z,98320.34
2023-06-30T11:14:15.614Z,98345.03
2023-06-30T11:17:03.263Z,98332.22
2023-06-30T11:19:29.996Z,98326.19
2023-06-30T11:22:22.991Z,98336.31
2023-06-30T11:24:52.706Z,98434.28
2023-06-30T11:27:20.418Z,98486.75
2023-06-30T11:29:50.819Z,98535.13
2023-06-30T11:32:39.555Z,98530.38
2023-06-30T11:35:09.190Z,98549.94
2023-06-30T11:37:39.117Z,98554.13
2023-06-30T11:40:07.693Z,98553.56
2023-06-30T11:42:39.969Z,98529.53
2023-06-30T11:45:10.220Z,98503.81
2023-06-30T11:47:39.866Z,98478.06
2023-06-30T11:50:09.016Z,98459.16
2023-06-30T11:52:38.074Z,98481.41
2023-06-30T11:55:09.799Z,98463.09
2023-06-30T11:57:37.956Z,98462.09
2023-06-30T12:00:13.424Z,98476.56
2023-06-30T12:02:48.804Z,98492.72
2023-06-30T12:05:23.521Z,98465.09
2023-06-30T12:07:53.255Z,98417.00
2023-06-30T12:10:21.302Z,98405.78
2023-06-30T12:12:57.895Z,98391.47
2023-06-30T12:15:26.006Z,98368.16
2023-06-30T12:17:55.759Z,98386.69
2023-06-30T12:20:30.800Z,98365.91
2023-06-30T12:22:58.897Z,98371.47
2023-06-30T12:25:28.643Z,98390.75
2023-06-30T12:27:55.602Z,98371.53
2023-06-30T12:30:24.893Z,98342.06
2023-06-30T12:33:02.108Z,98324.00
2023-06-30T12:35:34.770Z,98316.53
2023-06-30T12:38:06.176Z,98290.28
2023-06-30T12:40:33.875Z,98278.63
2023-06-30T12:43:01.099Z,98337.91
2023-06-30T12:45:28.401Z,98332.41
2023-06-30T12:47:55.213Z,98346.53
2023-06-30T12:50:22.092Z,98330.78
2023-06-30T12:52:49.983Z,98331.59
2023-06-30T12:55:16.858Z,98345.31
2023-06-30T12:57:53.440Z,98347.22
2023-06-30T13:00:20.363Z,98342.50
2023-06-30T13:02:48.624Z,98312.81
2023-06-30T13:05:15.882Z,98315.84
2023-06-30T13:07:44.147Z,98291.13
2023-06-30T13:10:11.925Z,98323.50
2023-06-30T13:12:42.413Z,98279.28
2023-06-30T13:15:10.417Z,98217.69
2023-06-30T13:17:37.768Z,98315.75
2023-06-30T13:20:09.202Z,98315.69
2023-06-30T13:22:42.794Z,98342.31
2023-06-30T13:25:18.206Z,98362.25
2023-06-30T13:27:45.632Z,98408.47
2023-06-30T13:30:12.795Z,98453.34
2023-06-30T13:32:42.323Z,98482.47
2023-06-30T13:35:09.400Z,98555.50
2023-06-30T13:37:36.310Z,98529.75
2023-06-30T13:40:03.836Z,98535.69
2023-06-30T13:42:31.706Z,98487.84
2023-06-30T13:44:59.830Z,98526.69
2023-06-30T13:47:26.866Z,98531.38
2023-06-30T13:49:53.955Z,98487.28
2023-06-30T13:52:22.386Z,98493.63
2023-06-30T13:54:49.837Z,98487.03
2023-06-30T13:57:18.583Z,98492.91
2023-06-30T13:59:45.567Z,98499.47
2023-06-30T14:02:12.793Z,98469.81
2023-06-30T14:04:40.660Z,98482.66
2023-06-30T14:07:08.002Z,98457.97
2023-06-30T14:09:35.295Z,98456.00
2023-06-30T14:12:04.098Z,98458.94
2023-06-30T14:14:31.316Z,98480.53
2023-06-30T14:16:59.052Z,98456.34
2023-06-30T14:19:26.012Z,98442.53
2023-06-30T14:21:54.514Z,98441.91
2023-06-30T14:24:22.138Z,98435.41
2023-06-30T14:26:49.195Z,98415.38
2023-06-30T14:29:17.731Z,98381.94
2023-06-30T14:31:47.017Z,98388.13
2023-06-30T14:34:13.994Z,98372.59
2023-06-30T14:36:40.993Z,98366.16
2023-06-30T14:39:08.271Z,98376.59
2023-06-30T14:41:35.001Z,98351.00
2023-06-30T14:44:01.907Z,98339.75
2023-06-30T14:46:28.839Z,98322.56
2023-06-30T14:48:56.127Z,98322.94
2023-06-30T14:51:28.277Z,98296.38
2023-06-30T14:53:55.106Z,98277.56
2023-06-30T14:56:22.359Z,98282.59
2023-06-30T14:58:51.385Z,98279.31
2023-06-30T15:01:19.375Z,98267.28
2023-06-30T15:03:47.438Z,98269.25
2023-06-30T15:06:16.709Z,98250.28
2023-06-30T15:08:46.424Z,98255.38
2023-06-30T15:11:16.090Z,98262.47
2023-06-30T15:13:42.805Z,98261.94
2023-06-30T15:16:10.256Z,98226.41
2023-06-30T15:18:38.074Z,98254.72
2023-06-30T15:21:06.525Z,98262.69
2023-06-30T15:23:33.401Z,98277.59
2023-06-30T15:26:01.437Z,98281.19
2023-06-30T15:28:28.330Z,98289.81
2023-06-30T15:30:55.189Z,98306.34
2023-06-30T15:33:22.111Z,98276.16
2023-06-30T15:35:49.396Z,98304.28
2023-06-30T15:38:16.404Z,98309.44
2023-06-30T15:40:43.955Z,98345.94
2023-06-30T15:43:11.281Z,98331.44
2023-06-30T15:45:41.354Z,98332.25
2023-06-30T15:48:15.060Z,98306.19
2023-06-30T15:50:43.365Z,98302.81
2023-06-30T15:53:12.012Z,98301.81
2023-06-30T15:58:21.955Z,98277.88
2023-06-30T16:00:48.933Z,98290.97
2023-06-30T16:03:17.503Z,98292.91
2023-06-30T16:05:47.436Z,98291.72
2023-06-30T16:08:15.532Z,98287.44
2023-06-30T16:10:43.034Z,98289.09
2023-06-30T16:13:13.168Z,98269.13
2023-06-30T16:15:41.142Z,98292.56
2023-06-30T16:18:09.132Z,98297.47
2023-06-30T16:20:36.304Z,98288.19
2023-06-30T16:23:04.129Z,98301.03
2023-06-30T16:25:32.314Z,98298.47
2023-06-30T16:27:59.783Z,98303.72
2023-06-30T16:30:31.109Z,98279.84
2023-06-30T16:32:58.620Z,98281.94
2023-06-30T16:35:27.144Z,98302.00
2023-06-30T16:37:54.793Z,98291.88
2023-06-30T16:40:22.818Z,98290.06
2023-06-30T16:42:50.157Z,98258.28
2023-06-30T16:45:17.886Z,98303.47
2023-06-30T16:47:48.293Z,98310.00
2023-06-30T16:50:16.381Z,98364.44
2023-06-30T16:52:44.352Z,98383.00
2023-06-30T16:55:12.462Z,98417.13
2023-06-30T16:57:39.899Z,98418.81
2023-06-30T17:00:10.642Z,98412.34
2023-06-30T17:02:38.697Z,98437.09
2023-06-30T17:05:07.008Z,98448.94
2023-06-30T17:07:34.269Z,98452.56
2023-06-30T17:10:01.386Z,98475.69
2023-06-30T17:12:28.511Z,98483.97
2023-06-30T17:14:55.665Z,98525.09
2023-06-30T17:17:26.479Z,98594.06
2023-06-30T17:19:53.515Z,98653.84
2023-06-30T17:22:20.482Z,98687.38
2023-06-30T17:24:47.298Z,98688.16
2023-06-30T17:27:15.221Z,98687.13
2023-06-30T17:29:42.136Z,98672.06
2023-06-30T17:32:09.701Z,98662.69
2023-06-30T17:34:37.313Z,98669.72
2023-06-30T17:37:09.278Z,98691.44
2023-06-30T17:39:38.168Z,98735.25
2023-06-30T17:42:06.345Z,98731.91
2023-06-30T17:44:33.080Z,98780.19
2023-06-30T17:47:00.338Z,98788.72
2023-06-30T17:49:31.663Z,98868.81
2023-06-30T17:52:00.544Z,98933.94
2023-06-30T17:54:28.210Z,98954.03
2023-06-30T17:56:55.308Z,98967.72
2023-06-30T17:59:23.598Z,98907.34
2023-06-30T18:01:58.810Z,98862.00
2023-06-30T18:04:26.283Z,98849.31
2023-06-30T18:07:08.406Z,98826.81
2023-06-30T18:09:41.174Z,98808.13
2023-06-30T18:12:11.234Z,98793.59
2023-06-30T18:14:39.178Z,98779.94
2023-06-30T18:17:06.743Z,98771.59
2023-06-30T18:19:34.061Z,98763.44
2023-06-30T18:22:01.767Z,98758.47
2023-06-30T18:24:31.480Z,98756.91
2023-06-30T18:26:59.626Z,98747.69
2023-06-30T18:29:28.402Z,98725.94
2023-06-30T18:31:58.454Z,98732.56
2023-06-30T18:34:27.788Z,98748.91
2023-06-30T18:37:01.173Z,98738.75
2023-06-30T18:39:28.374Z,98733.44
2023-06-30T18:41:56.165Z,98714.06
2023-06-30T18:44:25.315Z,98712.47
2023-06-30T18:46:52.984Z,98724.47
2023-06-30T18:49:23.673Z,98685.19
2023-06-30T18:51:53.088Z,98723.81
2023-06-30T18:54:20.541Z,98727.06
2023-06-30T18:56:47.718Z,98723.31
2023-06-30T18:59:16.055Z,98699.47
2023-06-30T19:01:46.468Z,98714.47
2023-06-30T19:04:14.878Z,98611.81
2023-06-30T19:06:42.324Z,98711.59
2023-06-30T19:11:58.624Z,98641.88
2023-06-30T19:14:32.053Z,98746.91
2023-06-30T19:16:58.778Z,98718.66
2023-06-30T19:19:27.224Z,98757.47
2023-06-30T19:21:56.835Z,98741.00
2023-06-30T19:24:25.573Z,98755.34
2023-06-30T19:26:52.826Z,98765.75
2023-06-30T19:29:19.794Z,98773.28
2023-06-30T19:31:47.513Z,98778.81
2023-06-30T19:34:14.938Z,98776.31
2023-06-30T19:36:42.176Z,98780.38
2023-06-30T19:39:09.357Z,98771.59
2023-06-30T19:41:36.423Z,98784.97
2023-06-30T19:44:03.170Z,98787.63
2023-06-30T19:46:30.718Z,98787.25
2023-06-30T19:48:57.783Z,98784.38
2023-06-30T19:51:25.391Z,98802.84
2023-06-30T19:53:52.243Z,98801.16
2023-06-30T19:56:19.075Z,98789.75
2023-06-30T19:58:46.856Z,98816.22
2023-06-30T20:01:18.004Z,98811.56
2023-06-30T20:03:45.051Z,98813.63
2023-06-30T20:06:12.047Z,98824.50
2023-06-30T20:08:38.945Z,98844.34
2023-06-30T20:11:05.836Z,98843.50
2023-06-30T20:13:32.651Z,98844.56
2023-06-30T20:15:59.663Z,98814.75
2023-06-30T20:18:26.547Z,98808.13
2023-06-30T20:20:53.319Z,98817.84
2023-06-30T20:23:20.630Z,98817.84
2023-06-30T20:25:47.971Z,98815.53
2023-06-30T20:28:16.315Z,98808.06
2023-06-30T20:30:43.440Z,98793.31
2023-06-30T20:33:10.783Z,98807.16
2023-06-30T20:35:39.001Z,98781.66
2023-06-30T20:38:07.088Z,98791.16
2023-06-30T20:40:37.146Z,98787.41
2023-06-30T20:43:05.139Z,98781.59
2023-06-30T20:45:32.408Z,98795.38
2023-06-30T20:47:59.419Z,98775.75
2023-06-30T20:50:26.402Z,98784.09
2023-06-30T20:52:55.106Z,98777.69
2023-06-30T20:55:22.154Z,98770.44
2023-06-30T20:57:52.094Z,98771.00
2023-06-30T21:00:19.634Z,98766.38
2023-06-30T21:02:46.624Z,98757.19
2023-06-30T21:05:13.890Z,98761.00
2023-06-30T21:07:44.454Z,98750.22
2023-06-30T21:10:12.277Z,98755.41
2023-06-30T21:12:40.237Z,98734.59
2023-06-30T21:15:07.913Z,98740.28
2023-06-30T21:17:35.647Z,98744.06
2023-06-30T21:20:04.126Z,98742.38
2023-06-30T21:22:31.870Z,98722.16
2023-06-30T21:24:58.660Z,98730.66
2023-06-30T21:27:25.641Z,98723.84
2023-06-30T21:29:52.605Z,98723.84
2023-06-30T21:32:19.481Z,98726.34
2023-06-30T21:34:46.442Z,98713.53
2023-06-30T21:37:13.653Z,98707.69
2023-06-30T21:39:40.804Z,98680.31
2023-06-30T21:42:08.315Z,98693.56
2023-06-30T21:44:36.416Z,98678.53
2023-06-30T21:47:03.444Z,98675.03
2023-06-30T21:49:30.675Z,98685.59
2023-06-30T21:51:57.752Z,98635.56
2023-06-30T21:54:40.599Z,98680.44
2023-06-30T21:57:12.117Z,98687.03
2023-06-30T21:59:39.105Z,98686.50
2023-06-30T22:02:06.358Z,98695.28
2023-06-30T22:04:33.914Z,98686.59
2023-06-30T22:07:01.103Z,98690.22
2023-06-30T22:09:33.625Z,98688.41
2023-06-30T22:12:00.663Z,98694.41
2023-06-30T22:14:29.279Z,98691.94
2023-06-30T22:16:56.257Z,98672.41
2023-06-30T22:19:23.070Z,98683.53
2023-06-30T22:21:50.710Z,98680.31
2023-06-30T22:24:18.220Z,98687.88
2023-06-30T22:26:45.805Z,98698.75
2023-06-30T22:29:12.938Z,98683.25
2023-06-30T22:31:41.139Z,98683.81
2023-06-30T22:34:08.022Z,98685.91
2023-06-30T22:36:35.178Z,98683.97
2023-06-30T22:39:02.773Z,98674.38
2023-06-30T22:41:32.066Z,98681.75
2023-06-30T22:43:59.335Z,98692.34
2023-06-30T22:46:26.918Z,98691.63
2023-06-30T22:48:54.605Z,98681.91
2023-06-30T22:51:24.265Z,98687.91
2023-06-30T22:53:51.725Z,98695.56
2023-06-30T22:56:18.570Z,98697.25
2023-06-30T22:58:45.605Z,98694.88
2023-06-30T23:01:13.370Z,98695.31
2023-06-30T23:03:41.416Z,98692.25
2023-06-30T23:06:09.148Z,98688.50
2023-06-30T23:08:36.559Z,98682.78
2023-06-30T23:11:12.091Z,98705.91
2023-06-30T23:13:39.004Z,98676.91
2023-06-30T23:16:06.562Z,98685.72
2023-06-30T23:18:39.085Z,98697.41
2023-06-30T23:21:13.248Z,98701.34
2023-06-30T23:23:43.748Z,98712.75
2023-06-30T23:26:11.738Z,98708.97
2023-06-30T23:28:49.535Z,98704.25
2023-06-30T23:31:22.948Z,98701.88
2023-06-30T23:33:53.554Z,98709.84
2023-06-30T23:36:21.760Z,98722.38
2023-06-30T23:38:49.957Z,98711.34
2023-06-30T23:41:17.078Z,98708.56
2023-06-30T23:43:44.420Z,98712.47
2023-06-30T23:46:19.425Z,98711.75
2023-06-30T23:48:46.747Z,98719.56
2023-06-30T23:51:15.726Z,98713.84
2023-06-30T23:53:43.002Z,98724.56
2023-06-30T23:56:10.273Z,98724.56
2023-06-30T23:58:37.696Z,98728.91
